createdAt,value
2023-03-06T00:01:34.005Z,6.65
2023-03-06T00:04:07.448Z,5.70
2023-03-06T00:06:38.689Z,5.47
2023-03-06T00:09:06.723Z,4.68
2023-03-06T00:11:40.200Z,5.75
2023-03-06T00:14:08.666Z,4.97
2023-03-06T00:16:42.544Z,3.87
2023-03-06T00:19:17.448Z,5.82
2023-03-06T00:21:51.079Z,5.15
2023-03-06T00:24:27.843Z,4.80
2023-03-06T00:26:59.123Z,5.65
2023-03-06T00:29:35.334Z,5.18
2023-03-06T00:32:03.482Z,5.45
2023-03-06T00:34:34.067Z,6.00
2023-03-06T00:37:02.250Z,3.87
2023-03-06T00:39:36.098Z,4.15
2023-03-06T00:42:06.684Z,5.55
2023-03-06T00:44:40.192Z,4.93
2023-03-06T00:47:08.383Z,5.62
2023-03-06T00:49:40.009Z,4.53
2023-03-06T00:52:11.314Z,6.70
2023-03-06T00:54:42.360Z,4.30
2023-03-06T00:57:13.017Z,4.35
2023-03-06T00:59:43.593Z,5.07
2023-03-06T01:02:15.163Z,4.15
2023-03-06T01:04:51.914Z,4.87
2023-03-06T01:07:23.075Z,4.22
2023-03-06T01:09:53.626Z,3.75
2023-03-06T01:12:23.408Z,5.25
2023-03-06T01:14:52.537Z,4.15
2023-03-06T01:17:24.227Z,4.25
2023-03-06T01:19:55.080Z,4.00
2023-03-06T01:22:22.657Z,4.80
2023-03-06T01:24:51.223Z,4.70
2023-03-06T01:27:24.445Z,4.03
2023-03-06T01:29:52.067Z,3.42
2023-03-06T01:32:21.820Z,6.40
2023-03-06T01:34:49.360Z,4.55
2023-03-06T01:37:19.560Z,5.68
2023-03-06T01:39:50.310Z,3.40
2023-03-06T01:42:25.093Z,4.22
2023-03-06T01:45:14.174Z,4.45
2023-03-06T01:47:42.008Z,3.33
2023-03-06T01:50:18.670Z,5.18
2023-03-06T01:52:49.608Z,4.70
2023-03-06T01:55:31.831Z,5.53
2023-03-06T01:58:11.537Z,5.18
2023-03-06T02:00:40.092Z,3.85
2023-03-06T02:03:14.598Z,5.03
2023-03-06T02:05:46.016Z,3.85
2023-03-06T02:08:23.665Z,4.43
2023-03-06T02:11:14.711Z,4.35
2023-03-06T02:13:48.583Z,3.70
2023-03-06T02:16:17.958Z,4.87
2023-03-06T02:18:57.384Z,4.18
2023-03-06T02:21:37.527Z,4.12
2023-03-06T02:24:38.212Z,4.43
2023-03-06T02:27:14.167Z,7.45
2023-03-06T02:29:42.331Z,5.55
2023-03-06T02:32:13.097Z,5.93
2023-03-06T02:34:50.393Z,3.90
2023-03-06T02:37:21.937Z,4.25
2023-03-06T02:40:01.073Z,4.53
2023-03-06T02:42:32.326Z,3.30
2023-03-06T02:45:02.789Z,3.62
2023-03-06T02:47:33.642Z,3.60
2023-03-06T02:50:04.697Z,5.00
2023-03-06T02:52:37.964Z,3.62
2023-03-06T02:55:05.982Z,4.85
2023-03-06T02:57:36.346Z,4.62
2023-03-06T03:00:13.296Z,3.40
2023-03-06T03:02:49.482Z,3.62
2023-03-06T03:05:19.900Z,3.53
2023-03-06T03:07:53.961Z,4.07
2023-03-06T03:10:25.236Z,2.92
2023-03-06T03:12:58.928Z,3.65
2023-03-06T03:15:27.526Z,4.32
2023-03-06T03:17:57.530Z,3.53
2023-03-06T03:20:30.746Z,3.12
2023-03-06T03:23:01.921Z,3.25
2023-03-06T03:25:29.234Z,5.18
2023-03-06T03:27:57.550Z,3.75
2023-03-06T03:30:31.206Z,3.70
2023-03-06T03:32:59.076Z,3.50
2023-03-06T03:35:26.565Z,4.35
2023-03-06T03:37:56.740Z,3.75
2023-03-06T03:40:43.998Z,4.18
2023-03-06T03:43:14.633Z,5.65
2023-03-06T03:45:45.927Z,3.55
2023-03-06T03:48:18.738Z,4.22
2023-03-06T03:50:51.619Z,4.18
2023-03-06T03:53:22.993Z,3.47
2023-03-06T03:55:54.772Z,4.28
2023-03-06T03:58:28.410Z,3.78
2023-03-06T04:01:00.714Z,4.57
2023-03-06T04:03:31.308Z,4.35
2023-03-06T04:05:59.047Z,3.42
2023-03-06T04:08:30.601Z,3.87
2023-03-06T04:11:02.103Z,4.30
2023-03-06T04:13:39.328Z,4.45
2023-03-06T04:16:10.539Z,4.82
2023-03-06T04:18:41.960Z,4.65
2023-03-06T04:21:10.373Z,4.47
2023-03-06T04:23:41.310Z,4.87
2023-03-06T04:26:15.757Z,3.75
2023-03-06T04:28:57.263Z,5.12
2023-03-06T04:31:31.337Z,2.95
2023-03-06T04:34:00.943Z,3.80
2023-03-06T04:36:33.944Z,4.10
2023-03-06T04:41:29.713Z,4.30
2023-03-06T04:43:57.636Z,4.53
2023-03-06T04:46:30.709Z,3.90
2023-03-06T04:51:39.404Z,4.10
2023-03-06T04:54:11.018Z,4.40
2023-03-06T04:56:43.158Z,4.55
2023-03-06T04:59:13.062Z,3.95
2023-03-06T05:01:40.824Z,4.18
2023-03-06T05:04:11.519Z,3.90
2023-03-06T05:06:40.746Z,4.50
2023-03-06T05:09:13.367Z,3.40
2023-03-06T05:11:40.733Z,4.30
2023-03-06T05:14:12.440Z,4.18
2023-03-06T05:16:43.353Z,4.50
2023-03-06T05:19:17.432Z,3.00
2023-03-06T05:21:48.006Z,4.30
2023-03-06T05:24:15.477Z,4.40
2023-03-06T05:26:47.862Z,3.53
2023-03-06T05:29:20.292Z,3.55
2023-03-06T05:31:47.906Z,4.90
2023-03-06T05:34:16.986Z,5.00
2023-03-06T05:36:45.135Z,3.97
2023-03-06T05:39:15.580Z,5.03
2023-03-06T05:41:45.747Z,3.55
2023-03-06T05:44:13.674Z,3.28
2023-03-06T05:46:41.166Z,5.05
2023-03-06T05:49:12.945Z,6.18
2023-03-06T05:51:42.455Z,2.95
2023-03-06T05:54:17.482Z,4.10
2023-03-06T05:56:48.150Z,6.20
2023-03-06T05:59:16.093Z,6.68
2023-03-06T06:01:50.338Z,5.47
2023-03-06T06:04:21.040Z,10.27
2023-03-06T06:06:59.181Z,6.80
2023-03-06T06:09:30.804Z,7.95
2023-03-06T06:12:03.353Z,7.60
2023-03-06T06:14:36.417Z,11.07
2023-03-06T06:19:37.104Z,7.95
2023-03-06T06:22:13.229Z,12.13
2023-03-06T06:24:46.939Z,7.75
2023-03-06T06:27:18.532Z,11.65
2023-03-06T06:29:54.218Z,5.72
2023-03-06T06:32:22.253Z,9.88
2023-03-06T06:34:53.636Z,11.20
2023-03-06T06:37:21.276Z,8.07
2023-03-06T06:39:54.879Z,9.32
2023-03-06T06:42:39.004Z,8.57
2023-03-06T06:45:11.450Z,8.50
2023-03-06T06:47:41.953Z,7.12
2023-03-06T06:50:14.246Z,8.82
2023-03-06T06:52:42.176Z,9.18
2023-03-06T06:55:13.509Z,10.07
2023-03-06T06:57:48.897Z,10.93
2023-03-06T07:00:22.637Z,11.90
2023-03-06T07:02:52.686Z,15.35
2023-03-06T07:05:23.909Z,9.50
2023-03-06T07:07:53.645Z,10.43
2023-03-06T07:10:24.329Z,5.32
2023-03-06T07:12:52.082Z,9.57
2023-03-06T07:15:23.036Z,8.13
2023-03-06T07:17:53.978Z,7.60
2023-03-06T07:20:24.321Z,18.55
2023-03-06T07:22:54.660Z,7.00
2023-03-06T07:25:25.112Z,13.10
2023-03-06T07:27:55.529Z,8.82
2023-03-06T07:30:25.903Z,8.63
2023-03-06T07:32:55.006Z,11.18
2023-03-06T07:35:24.911Z,10.63
2023-03-06T07:37:52.722Z,10.68
2023-03-06T07:40:23.607Z,8.77
2023-03-06T07:42:53.004Z,7.07
2023-03-06T07:45:23.423Z,9.63
2023-03-06T07:47:51.516Z,8.75
2023-03-06T07:50:22.452Z,9.65
2023-03-06T07:52:53.071Z,10.05
2023-03-06T07:55:20.970Z,12.37
2023-03-06T07:57:51.717Z,13.75
2023-03-06T08:00:19.378Z,24.63
2023-03-06T08:02:47.242Z,17.98
2023-03-06T08:05:16.865Z,13.30
2023-03-06T08:07:50.467Z,16.80
2023-03-06T08:10:20.633Z,12.15
2023-03-06T08:12:47.736Z,14.87
2023-03-06T08:15:16.287Z,15.82
2023-03-06T08:17:46.672Z,12.55
2023-03-06T08:20:16.415Z,15.25
2023-03-06T08:22:49.996Z,15.75
2023-03-06T08:25:25.112Z,13.23
2023-03-06T08:27:52.983Z,8.63
2023-03-06T08:30:26.313Z,10.07
2023-03-06T08:32:53.924Z,12.63
2023-03-06T08:35:27.764Z,19.23
2023-03-06T08:37:57.570Z,11.88
2023-03-06T08:40:30.257Z,12.55
2023-03-06T08:42:58.700Z,11.52
2023-03-06T08:45:28.197Z,22.23
2023-03-06T08:47:58.205Z,19.80
2023-03-06T08:50:31.324Z,8.98
2023-03-06T08:53:04.081Z,9.57
2023-03-06T08:55:31.325Z,12.23
2023-03-06T08:58:05.229Z,13.25
2023-03-06T09:00:34.015Z,9.68
2023-03-06T09:03:01.350Z,8.10
2023-03-06T09:05:31.761Z,8.20
2023-03-06T09:07:59.179Z,11.27
2023-03-06T09:10:29.146Z,9.02
2023-03-06T09:12:59.185Z,8.07
2023-03-06T09:15:29.889Z,7.37
2023-03-06T09:18:00.622Z,7.47
2023-03-06T09:20:33.255Z,10.43
2023-03-06T09:23:03.442Z,6.75
2023-03-06T09:25:38.446Z,8.40
2023-03-06T09:28:11.600Z,5.87
2023-03-06T09:30:45.265Z,8.38
2023-03-06T09:33:22.346Z,8.40
2023-03-06T09:36:02.000Z,5.65
2023-03-06T09:38:29.272Z,7.25
2023-03-06T09:41:18.191Z,8.02
2023-03-06T09:43:49.645Z,9.35
2023-03-06T09:46:23.761Z,10.43
2023-03-06T09:49:20.382Z,6.87
2023-03-06T09:52:11.032Z,6.28
2023-03-06T09:54:47.783Z,6.82
2023-03-06T09:57:35.215Z,9.48
2023-03-06T10:00:15.387Z,5.82
2023-03-06T10:03:07.212Z,13.02
2023-03-06T10:05:44.400Z,10.50
2023-03-06T10:08:27.195Z,8.55
2023-03-06T10:11:07.407Z,12.18
2023-03-06T10:13:52.024Z,7.78
2023-03-06T10:16:31.101Z,14.73
2023-03-06T10:19:10.690Z,10.05
2023-03-06T10:21:43.092Z,8.10
2023-03-06T10:24:24.324Z,10.48
2023-03-06T10:27:15.675Z,9.13
2023-03-06T10:30:14.461Z,11.90
2023-03-06T10:33:08.705Z,7.68
2023-03-06T10:35:48.647Z,10.52
2023-03-06T10:38:22.502Z,13.45
2023-03-06T10:41:04.015Z,13.25
2023-03-06T10:43:31.060Z,12.82
2023-03-06T10:46:05.658Z,10.93
2023-03-06T10:48:40.828Z,7.43
2023-03-06T10:51:25.076Z,7.30
2023-03-06T10:54:03.248Z,4.93
2023-03-06T10:56:34.729Z,7.90
2023-03-06T10:59:08.536Z,7.57
2023-03-06T11:01:36.214Z,8.63
2023-03-06T11:04:21.355Z,6.78
2023-03-06T11:07:33.796Z,8.23
2023-03-06T11:10:19.982Z,5.90
2023-03-06T11:12:58.864Z,7.53
2023-03-06T11:15:28.898Z,5.30
2023-03-06T11:18:00.195Z,4.85
2023-03-06T11:20:52.719Z,4.68
2023-03-06T11:23:26.752Z,4.22
2023-03-06T11:26:20.464Z,9.32
2023-03-06T11:29:05.037Z,5.10
2023-03-06T11:32:00.059Z,5.60
2023-03-06T11:34:41.813Z,7.35
2023-03-06T11:37:20.709Z,5.35
2023-03-06T11:39:59.119Z,12.77
2023-03-06T11:42:38.224Z,5.35
2023-03-06T11:45:23.177Z,5.32
2023-03-06T11:48:14.518Z,6.22
2023-03-06T11:50:50.615Z,6.45
2023-03-06T11:53:36.771Z,5.15
2023-03-06T11:56:21.904Z,5.82
2023-03-06T11:59:24.024Z,10.32
2023-03-06T12:02:37.199Z,6.05
2023-03-06T12:05:25.506Z,5.85
2023-03-06T12:08:11.959Z,10.63
2023-03-06T12:11:02.393Z,5.07
2023-03-06T12:13:53.698Z,5.45
2023-03-06T12:16:34.427Z,5.75
2023-03-06T12:19:17.553Z,7.62
2023-03-06T12:22:06.010Z,7.53
2023-03-06T12:24:53.136Z,8.40
2023-03-06T12:27:58.807Z,5.95
2023-03-06T12:30:56.289Z,3.65
2023-03-06T12:33:35.046Z,5.50
2023-03-06T12:36:29.885Z,4.80
2023-03-06T12:39:36.189Z,6.20
2023-03-06T12:42:44.267Z,5.35
2023-03-06T12:45:31.334Z,6.75
2023-03-06T12:47:59.511Z,8.43
2023-03-06T12:50:33.587Z,5.30
2023-03-06T12:53:08.358Z,6.90
2023-03-06T12:55:48.531Z,8.02
2023-03-06T12:58:30.558Z,12.93
2023-03-06T13:01:17.390Z,10.68
2023-03-06T13:04:13.036Z,8.48
2023-03-06T13:07:06.895Z,12.15
2023-03-06T13:10:06.131Z,11.50
2023-03-06T13:13:00.143Z,8.57
2023-03-06T13:15:40.994Z,12.13
2023-03-06T13:18:27.257Z,8.88
2023-03-06T13:20:57.979Z,10.82
2023-03-06T13:23:37.494Z,10.00
2023-03-06T13:26:06.296Z,12.20
2023-03-06T13:28:48.234Z,8.18
2023-03-06T13:31:53.394Z,7.12
2023-03-06T13:34:46.098Z,10.75
2023-03-06T13:37:18.788Z,12.55
2023-03-06T13:39:57.878Z,10.07
2023-03-06T13:43:03.234Z,10.88
2023-03-06T13:45:35.214Z,10.90
2023-03-06T13:50:54.933Z,10.35
2023-03-06T13:54:10.208Z,9.65
2023-03-06T13:56:39.740Z,11.75
2023-03-06T13:59:45.463Z,8.98
2023-03-06T14:02:59.205Z,8.18
2023-03-06T14:05:44.224Z,9.40
2023-03-06T14:08:17.864Z,9.40
2023-03-06T14:11:03.346Z,6.80
2023-03-06T14:13:47.944Z,9.85
2023-03-06T14:16:32.683Z,11.25
2023-03-06T14:19:17.912Z,6.45
2023-03-06T14:21:57.463Z,10.35
2023-03-06T14:24:34.467Z,8.60
2023-03-06T14:27:04.305Z,8.40
2023-03-06T14:29:37.609Z,8.68
2023-03-06T14:32:14.894Z,7.97
2023-03-06T14:34:50.998Z,7.90
2023-03-06T14:37:27.508Z,7.95
2023-03-06T14:39:54.746Z,8.27
2023-03-06T14:42:29.110Z,8.00
2023-03-06T14:45:05.579Z,6.20
2023-03-06T14:47:37.483Z,6.53
2023-03-06T14:50:26.531Z,7.32
2023-03-06T14:53:05.341Z,9.05
2023-03-06T14:55:45.671Z,8.32
2023-03-06T14:58:21.951Z,7.05
2023-03-06T15:00:54.211Z,7.87
2023-03-06T15:03:26.664Z,5.55
2023-03-06T15:05:55.711Z,7.82
2023-03-06T15:08:29.367Z,11.90
2023-03-06T15:11:05.109Z,5.72
2023-03-06T15:13:40.072Z,8.88
2023-03-06T15:16:27.465Z,9.30
2023-03-06T15:19:15.939Z,7.68
2023-03-06T15:21:48.205Z,5.93
2023-03-06T15:24:50.596Z,10.98
2023-03-06T15:27:33.501Z,14.75
2023-03-06T15:30:33.516Z,7.72
2023-03-06T15:33:19.389Z,9.07
2023-03-06T15:36:00.130Z,7.43
2023-03-06T15:38:36.823Z,9.15
2023-03-06T15:41:25.298Z,7.75
2023-03-06T15:43:54.053Z,8.00
2023-03-06T15:46:27.467Z,11.70
2023-03-06T15:49:01.801Z,16.77
2023-03-06T15:51:35.243Z,25.83
2023-03-06T15:54:12.044Z,25.17
2023-03-06T15:56:45.400Z,25.10
2023-03-06T15:59:36.035Z,34.95
2023-03-06T16:02:17.788Z,37.35
2023-03-06T16:04:51.746Z,33.58
2023-03-06T16:07:21.840Z,23.75
2023-03-06T16:09:52.168Z,23.40
2023-03-06T16:12:22.920Z,28.50
2023-03-06T16:14:53.612Z,25.20
2023-03-06T16:17:23.201Z,29.30
2023-03-06T16:19:54.103Z,26.52
2023-03-06T16:22:24.100Z,23.92
2023-03-06T16:25:00.579Z,23.83
2023-03-06T16:27:33.971Z,22.55
2023-03-06T16:30:01.788Z,28.10
2023-03-06T16:32:31.870Z,26.33
2023-03-06T16:34:58.986Z,27.15
2023-03-06T16:37:27.273Z,27.13
2023-03-06T16:40:01.428Z,22.87
2023-03-06T16:42:37.553Z,25.37
2023-03-06T16:45:11.642Z,23.08
2023-03-06T16:47:51.809Z,22.17
2023-03-06T16:50:27.767Z,20.08
2023-03-06T16:52:59.145Z,24.42
2023-03-06T16:55:29.563Z,21.67
2023-03-06T16:58:07.742Z,22.67
2023-03-06T17:00:42.746Z,19.52
2023-03-06T17:03:14.135Z,20.77
2023-03-06T17:05:46.877Z,20.88
2023-03-06T17:08:17.333Z,19.95
2023-03-06T17:10:44.236Z,16.35
2023-03-06T17:13:16.760Z,30.00
2023-03-06T17:15:54.836Z,26.75
2023-03-06T17:18:24.018Z,18.45
2023-03-06T17:20:57.481Z,21.27
2023-03-06T17:23:29.644Z,20.40
2023-03-06T17:26:08.266Z,20.42
2023-03-06T17:28:42.645Z,22.67
2023-03-06T17:31:21.303Z,23.33
2023-03-06T17:33:50.953Z,26.83
2023-03-06T17:36:23.774Z,34.38
2023-03-06T17:39:00.806Z,21.25
2023-03-06T17:41:33.459Z,24.05
2023-03-06T17:44:02.500Z,22.42
2023-03-06T17:46:31.846Z,25.37
2023-03-06T17:49:03.452Z,21.17
2023-03-06T17:51:35.159Z,19.25
2023-03-06T17:54:02.162Z,25.10
2023-03-06T17:56:29.313Z,25.92
2023-03-06T17:58:57.173Z,24.98
2023-03-06T18:01:28.139Z,21.05
2023-03-06T18:03:58.888Z,27.75
2023-03-06T18:06:25.908Z,22.35
2023-03-06T18:08:56.146Z,25.05
2023-03-06T18:11:27.682Z,27.05
2023-03-06T18:14:05.392Z,23.62
2023-03-06T18:16:42.314Z,21.02
2023-03-06T18:19:15.491Z,22.00
2023-03-06T18:21:47.826Z,21.90
2023-03-06T18:24:20.932Z,25.62
2023-03-06T18:26:48.641Z,19.92
2023-03-06T18:29:22.573Z,19.37
2023-03-06T18:31:56.110Z,18.27
2023-03-06T18:34:29.527Z,24.58
2023-03-06T18:37:03.347Z,20.12
2023-03-06T18:39:33.368Z,18.90
2023-03-06T18:42:01.204Z,17.67
2023-03-06T18:44:29.269Z,17.50
2023-03-06T18:47:02.269Z,19.30
2023-03-06T18:51:59.112Z,19.90
2023-03-06T18:54:31.936Z,16.12
2023-03-06T18:57:02.444Z,16.02
2023-03-06T18:59:35.638Z,17.40
2023-03-06T19:02:02.610Z,19.48
2023-03-06T19:04:37.927Z,12.95
2023-03-06T19:07:13.814Z,18.08
2023-03-06T19:09:49.041Z,16.80
2023-03-06T19:12:19.391Z,17.02
2023-03-06T19:14:46.762Z,20.42
2023-03-06T19:17:17.851Z,19.27
2023-03-06T19:19:57.142Z,25.48
2023-03-06T19:22:46.907Z,17.65
2023-03-06T19:25:20.868Z,17.58
2023-03-06T19:27:49.297Z,18.55
2023-03-06T19:30:19.599Z,20.37
2023-03-06T19:32:50.872Z,14.95
2023-03-06T19:35:26.126Z,16.55
2023-03-06T19:37:57.006Z,15.27
2023-03-06T19:40:32.706Z,12.45
2023-03-06T19:43:04.737Z,17.00
2023-03-06T19:45:36.265Z,17.00
2023-03-06T19:48:09.027Z,15.57
2023-03-06T19:50:43.415Z,12.35
2023-03-06T19:53:18.590Z,14.87
2023-03-06T19:55:47.972Z,14.20
2023-03-06T19:58:16.938Z,14.05
2023-03-06T20:00:50.115Z,11.70
2023-03-06T20:03:19.999Z,14.60
2023-03-06T20:05:48.185Z,11.85
2023-03-06T20:08:21.040Z,15.27
2023-03-06T20:10:51.682Z,17.40
2023-03-06T20:13:22.594Z,15.35
2023-03-06T20:15:52.794Z,11.10
2023-03-06T20:18:25.060Z,15.90
2023-03-06T20:21:02.937Z,12.55
2023-03-06T20:23:34.643Z,13.15
2023-03-06T20:26:09.228Z,12.25
2023-03-06T20:28:41.555Z,13.20
2023-03-06T20:31:13.475Z,11.18
2023-03-06T20:33:50.115Z,15.77
2023-03-06T20:36:22.829Z,10.82
2023-03-06T20:38:50.323Z,13.95
2023-03-06T20:41:27.340Z,10.73
2023-03-06T20:43:55.526Z,12.35
2023-03-06T20:46:24.603Z,12.40
2023-03-06T20:48:58.823Z,10.88
2023-03-06T20:51:37.937Z,13.35
2023-03-06T20:54:16.362Z,16.23
2023-03-06T20:56:47.453Z,13.10
2023-03-06T20:59:19.026Z,10.27
2023-03-06T21:01:46.784Z,11.32
2023-03-06T21:04:17.006Z,13.00
2023-03-06T21:06:52.848Z,12.37
2023-03-06T21:09:26.150Z,10.52
2023-03-06T21:11:57.782Z,10.00
2023-03-06T21:14:28.505Z,11.38
2023-03-06T21:16:57.732Z,11.20
2023-03-06T21:19:25.858Z,11.12
2023-03-06T21:22:02.148Z,11.90
2023-03-06T21:24:33.800Z,9.23
2023-03-06T21:27:12.736Z,10.73
2023-03-06T21:29:45.298Z,10.18
2023-03-06T21:32:12.971Z,13.43
2023-03-06T21:34:43.050Z,10.75
2023-03-06T21:37:11.184Z,11.52
2023-03-06T21:39:41.350Z,10.15
2023-03-06T21:42:08.597Z,9.82
2023-03-06T21:44:38.313Z,11.12
2023-03-06T21:47:08.716Z,11.10
2023-03-06T21:49:35.939Z,11.73
2023-03-06T21:52:06.531Z,11.38
2023-03-06T21:54:34.281Z,10.70
2023-03-06T21:57:07.472Z,7.93
2023-03-06T21:59:34.841Z,10.05
2023-03-06T22:02:02.460Z,10.63
2023-03-06T22:04:30.537Z,10.73
2023-03-06T22:06:57.952Z,11.23
2023-03-06T22:09:28.985Z,8.68
2023-03-06T22:11:59.863Z,10.45
2023-03-06T22:14:33.084Z,10.23
2023-03-06T22:17:01.155Z,9.60
2023-03-06T22:19:34.644Z,10.60
2023-03-06T22:22:05.278Z,9.02
2023-03-06T22:24:39.754Z,10.07
2023-03-06T22:27:13.340Z,10.82
2023-03-06T22:29:43.740Z,10.88
2023-03-06T22:32:16.268Z,10.13
2023-03-06T22:37:27.792Z,10.98
2023-03-06T22:40:02.623Z,9.10
2023-03-06T22:42:34.920Z,10.05
2023-03-06T22:45:05.173Z,11.82
2023-03-06T22:47:37.402Z,8.43
2023-03-06T22:50:07.707Z,9.98
2023-03-06T22:52:35.243Z,8.68
2023-03-06T22:55:07.668Z,8.95
2023-03-06T22:57:43.943Z,8.85
2023-03-06T23:00:18.463Z,9.43
2023-03-06T23:02:52.376Z,8.55
2023-03-06T23:05:22.264Z,12.52
2023-03-06T23:07:56.208Z,11.25
2023-03-06T23:10:28.660Z,10.15
2023-03-06T23:12:59.417Z,10.13
2023-03-06T23:15:26.840Z,9.32
2023-03-06T23:18:00.063Z,12.00
2023-03-06T23:20:34.059Z,8.45
2023-03-06T23:23:01.856Z,8.88
2023-03-06T23:25:34.784Z,10.07
2023-03-06T23:28:05.206Z,10.32
2023-03-06T23:30:33.038Z,9.30
2023-03-06T23:33:04.191Z,9.68
2023-03-06T23:35:39.016Z,8.70
2023-03-06T23:38:09.298Z,8.95
2023-03-06T23:40:37.528Z,8.30
2023-03-06T23:43:09.115Z,8.65
2023-03-06T23:45:39.682Z,11.30
2023-03-06T23:48:16.943Z,8.77
2023-03-06T23:50:53.803Z,7.93
2023-03-06T23:53:25.442Z,10.90
2023-03-06T23:55:53.018Z,8.80
2023-03-06T23:58:20.613Z,9.20
